createdAt,value
2023-05-02T00:02:16.362Z,4.93
2023-05-02T00:04:44.720Z,5.30
2023-05-02T00:07:12.846Z,5.80
2023-05-02T00:09:41.255Z,5.28
2023-05-02T00:12:10.676Z,4.93
2023-05-02T00:14:39.008Z,5.15
2023-05-02T00:17:07.255Z,5.43
2023-05-02T00:19:40.411Z,5.28
2023-05-02T00:24:36.981Z,5.13
2023-05-02T00:27:06.398Z,4.78
2023-05-02T00:29:36.598Z,5.10
2023-05-02T00:32:04.727Z,5.63
2023-05-02T00:34:32.926Z,4.93
2023-05-02T00:37:01.358Z,4.70
2023-05-02T00:39:29.269Z,4.85
2023-05-02T00:42:00.623Z,4.70
2023-05-02T00:44:29.174Z,4.88
2023-05-02T00:46:59.517Z,4.50
2023-05-02T00:49:27.821Z,4.18
2023-05-02T00:51:56.291Z,4.35
2023-05-02T00:54:24.394Z,4.53
2023-05-02T00:56:52.989Z,4.25
2023-05-02T00:59:21.753Z,4.38
2023-05-02T01:01:59.663Z,4.38
2023-05-02T01:04:36.472Z,4.50
2023-05-02T01:07:27.608Z,4.00
2023-05-02T01:10:06.085Z,4.28
2023-05-02T01:12:39.565Z,4.40
2023-05-02T01:15:12.083Z,4.60
2023-05-02T01:17:41.764Z,4.53
2023-05-02T01:20:16.008Z,3.95
2023-05-02T01:22:44.976Z,4.40
2023-05-02T01:25:21.921Z,4.53
2023-05-02T01:27:59.004Z,4.60
2023-05-02T01:30:30.915Z,4.97
2023-05-02T01:33:00.495Z,5.22
2023-05-02T01:35:29.223Z,5.03
2023-05-02T01:37:59.073Z,5.13
2023-05-02T01:40:27.379Z,5.20
2023-05-02T01:42:57.250Z,5.63
2023-05-02T01:45:27.771Z,5.10
2023-05-02T01:47:58.929Z,5.18
2023-05-02T01:50:28.919Z,6.03
2023-05-02T01:52:59.766Z,5.70
2023-05-02T01:55:29.074Z,5.35
2023-05-02T01:57:59.019Z,6.03
2023-05-02T02:00:27.501Z,6.10
2023-05-02T02:02:58.501Z,6.40
2023-05-02T02:05:28.302Z,6.78
2023-05-02T02:07:56.689Z,5.75
2023-05-02T02:10:28.409Z,6.85
2023-05-02T02:13:04.631Z,6.70
2023-05-02T02:15:36.688Z,6.32
2023-05-02T02:18:11.279Z,6.57
2023-05-02T02:20:41.761Z,7.00
2023-05-02T02:23:11.210Z,7.22
2023-05-02T02:25:40.490Z,6.82
2023-05-02T02:28:08.929Z,7.18
2023-05-02T02:30:37.405Z,7.43
2023-05-02T02:33:07.223Z,6.40
2023-05-02T02:35:39.575Z,7.25
2023-05-02T02:38:16.219Z,6.83
2023-05-02T02:40:51.390Z,7.30
2023-05-02T02:43:34.669Z,7.38
2023-05-02T02:48:50.776Z,8.32
2023-05-02T02:51:30.008Z,8.80
2023-05-02T02:54:18.973Z,7.47
2023-05-02T02:57:02.159Z,8.88
2023-05-02T02:59:33.729Z,8.45
2023-05-02T03:02:08.600Z,8.68
2023-05-02T03:04:42.950Z,8.85
2023-05-02T03:07:11.511Z,8.68
2023-05-02T03:09:43.690Z,8.15
2023-05-02T03:12:12.268Z,8.83
2023-05-02T03:14:41.492Z,8.27
2023-05-02T03:17:09.782Z,8.75
2023-05-02T03:19:39.553Z,8.80
2023-05-02T03:22:07.674Z,9.40
2023-05-02T03:24:35.938Z,9.05
2023-05-02T03:27:04.684Z,9.95
2023-05-02T03:29:32.871Z,9.85
2023-05-02T03:32:01.409Z,10.38
2023-05-02T03:34:29.781Z,9.73
2023-05-02T03:36:59.636Z,10.38
2023-05-02T03:39:27.852Z,10.35
2023-05-02T03:41:55.967Z,10.60
2023-05-02T03:44:24.414Z,10.60
2023-05-02T03:46:52.629Z,10.25
2023-05-02T03:49:20.806Z,10.90
2023-05-02T03:51:49.012Z,10.07
2023-05-02T03:54:18.623Z,11.82
2023-05-02T03:56:47.772Z,10.30
2023-05-02T03:59:16.760Z,10.70
2023-05-02T04:01:45.093Z,9.73
2023-05-02T04:04:13.634Z,10.02
2023-05-02T04:06:42.245Z,11.65
2023-05-02T04:09:10.290Z,10.60
2023-05-02T04:11:40.301Z,10.07
2023-05-02T04:14:08.811Z,9.82
2023-05-02T04:16:37.234Z,9.38
2023-05-02T04:19:05.809Z,9.93
2023-05-02T04:21:34.094Z,10.10
2023-05-02T04:24:02.254Z,12.73
2023-05-02T04:26:30.530Z,8.75
2023-05-02T04:29:00.038Z,9.45
2023-05-02T04:31:30.437Z,9.77
2023-05-02T04:33:58.899Z,10.00
2023-05-02T04:36:28.462Z,9.38
2023-05-02T04:38:56.912Z,9.48
2023-05-02T04:41:25.934Z,9.00
2023-05-02T04:43:54.289Z,9.95
2023-05-02T04:46:24.450Z,10.40
2023-05-02T04:48:52.972Z,10.50
2023-05-02T04:51:22.499Z,10.10
2023-05-02T04:53:51.472Z,12.00
2023-05-02T04:56:19.925Z,10.27
2023-05-02T04:58:48.251Z,11.05
2023-05-02T05:01:16.986Z,9.88
2023-05-02T05:03:46.988Z,9.80
2023-05-02T05:06:16.400Z,9.57
2023-05-02T05:08:45.933Z,9.80
2023-05-02T05:11:14.668Z,8.38
2023-05-02T05:13:43.109Z,8.48
2023-05-02T05:16:12.138Z,9.13
2023-05-02T05:18:41.683Z,9.57
2023-05-02T05:21:13.332Z,9.18
2023-05-02T05:23:46.535Z,9.55
2023-05-02T05:26:16.633Z,10.65
2023-05-02T05:28:45.196Z,9.50
2023-05-02T05:31:20.678Z,10.23
2023-05-02T05:33:49.000Z,11.98
2023-05-02T05:36:18.632Z,13.20
2023-05-02T05:38:47.477Z,12.00
2023-05-02T05:41:15.734Z,12.38
2023-05-02T05:43:44.012Z,20.25
2023-05-02T05:46:12.082Z,21.40
2023-05-02T05:48:42.307Z,22.95
2023-05-02T05:51:10.623Z,24.40
2023-05-02T05:53:40.482Z,25.55
2023-05-02T05:56:12.104Z,25.08
2023-05-02T05:58:41.702Z,25.08
2023-05-02T06:01:10.242Z,25.52
2023-05-02T06:03:38.999Z,25.35
2023-05-02T06:06:07.766Z,25.55
2023-05-02T06:08:35.789Z,26.23
2023-05-02T06:11:09.445Z,23.83
2023-05-02T06:13:37.745Z,27.65
2023-05-02T06:16:07.141Z,28.67
2023-05-02T06:18:35.427Z,28.05
2023-05-02T06:21:07.472Z,28.17
2023-05-02T06:23:36.921Z,30.90
2023-05-02T06:26:07.149Z,28.85
2023-05-02T06:28:35.242Z,28.65
2023-05-02T06:31:06.088Z,31.85
2023-05-02T06:33:35.507Z,31.42
2023-05-02T06:36:04.281Z,32.72
2023-05-02T06:38:33.389Z,31.77
2023-05-02T06:41:01.779Z,32.28
2023-05-02T06:43:31.379Z,33.13
2023-05-02T06:46:02.129Z,31.55
2023-05-02T06:48:30.534Z,31.98
2023-05-02T06:51:01.365Z,34.35
2023-05-02T06:53:32.365Z,33.80
2023-05-02T06:56:01.342Z,33.00
2023-05-02T06:58:34.426Z,33.05
2023-05-02T07:03:32.987Z,30.50
2023-05-02T07:06:01.157Z,33.10
2023-05-02T07:08:29.393Z,31.17
2023-05-02T07:10:57.730Z,31.08
2023-05-02T07:13:25.988Z,33.47
2023-05-02T07:15:57.531Z,32.72
2023-05-02T07:18:26.317Z,30.92
2023-05-02T07:20:55.054Z,31.67
2023-05-02T07:23:23.357Z,30.73
2023-05-02T07:25:51.671Z,32.42
2023-05-02T07:28:20.036Z,30.52
2023-05-02T07:30:48.341Z,29.75
2023-05-02T07:33:18.059Z,32.88
2023-05-02T07:35:46.334Z,29.88
2023-05-02T07:38:14.571Z,30.17
2023-05-02T07:40:43.896Z,30.77
2023-05-02T07:43:11.952Z,29.38
2023-05-02T07:45:42.042Z,27.90
2023-05-02T07:48:10.329Z,30.73
2023-05-02T07:50:39.894Z,28.00
2023-05-02T07:53:08.369Z,29.80
2023-05-02T07:55:36.653Z,29.08
2023-05-02T07:58:05.393Z,27.10
2023-05-02T08:00:33.774Z,27.00
2023-05-02T08:03:01.831Z,28.38
2023-05-02T08:05:30.190Z,26.70
2023-05-02T08:07:59.774Z,26.55
2023-05-02T08:10:28.007Z,27.83
2023-05-02T08:12:56.481Z,27.30
2023-05-02T08:15:24.939Z,27.45
2023-05-02T08:17:53.342Z,28.05
2023-05-02T08:20:22.371Z,27.58
2023-05-02T08:22:51.349Z,28.42
2023-05-02T08:25:21.149Z,28.25
2023-05-02T08:27:49.152Z,27.88
2023-05-02T08:30:17.333Z,27.15
2023-05-02T08:32:45.642Z,28.55
2023-05-02T08:35:13.993Z,27.17
2023-05-02T08:37:42.600Z,25.80
2023-05-02T08:40:14.158Z,27.67
2023-05-02T08:42:45.565Z,27.15
2023-05-02T08:45:16.736Z,27.45
2023-05-02T08:47:45.529Z,23.17
2023-05-02T08:50:14.171Z,24.42
2023-05-02T08:52:43.054Z,25.13
2023-05-02T08:55:13.074Z,25.73
2023-05-02T08:57:42.251Z,25.73
2023-05-02T09:00:13.201Z,23.17
2023-05-02T09:02:53.326Z,23.20
2023-05-02T09:05:25.125Z,21.77
2023-05-02T09:07:53.730Z,20.77
2023-05-02T09:10:23.466Z,20.33
2023-05-02T09:12:51.753Z,21.00
2023-05-02T09:15:21.878Z,20.58
2023-05-02T09:17:50.751Z,21.17
2023-05-02T09:20:22.911Z,20.83
2023-05-02T09:22:52.149Z,20.17
2023-05-02T09:25:23.084Z,20.38
2023-05-02T09:27:54.466Z,21.67
2023-05-02T09:30:25.804Z,21.67
2023-05-02T09:32:55.820Z,17.92
2023-05-02T09:35:27.700Z,18.92
2023-05-02T09:37:57.361Z,17.45
2023-05-02T09:40:27.608Z,17.85
2023-05-02T09:42:56.479Z,19.27
2023-05-02T09:45:27.314Z,18.02
2023-05-02T09:47:55.793Z,17.92
2023-05-02T09:50:38.089Z,16.38
2023-05-02T09:53:08.554Z,15.20
2023-05-02T09:55:36.886Z,16.27
2023-05-02T09:58:06.160Z,16.73
2023-05-02T10:00:46.287Z,15.75
2023-05-02T10:03:18.072Z,14.05
2023-05-02T10:05:47.938Z,15.27
2023-05-02T10:08:17.467Z,14.90
2023-05-02T10:10:53.689Z,13.43
2023-05-02T10:13:24.300Z,12.73
2023-05-02T10:15:59.568Z,12.25
2023-05-02T10:18:34.725Z,13.85
2023-05-02T10:21:07.227Z,12.52
2023-05-02T10:23:36.773Z,11.82
2023-05-02T10:26:05.707Z,12.40
2023-05-02T10:28:34.433Z,11.82
2023-05-02T10:31:06.573Z,12.63
2023-05-02T10:33:36.538Z,12.37
2023-05-02T10:36:05.015Z,12.93
2023-05-02T10:38:34.147Z,12.70
2023-05-02T10:41:07.866Z,12.48
2023-05-02T10:43:37.919Z,12.63
2023-05-02T10:46:31.633Z,12.30
2023-05-02T10:49:04.710Z,13.48
2023-05-02T10:54:23.423Z,13.10
2023-05-02T10:57:06.091Z,12.27
2023-05-02T10:59:37.186Z,13.60
2023-05-02T11:02:28.595Z,11.82
2023-05-02T11:05:05.960Z,12.63
2023-05-02T11:07:35.462Z,12.02
2023-05-02T11:10:26.327Z,11.25
2023-05-02T11:12:55.410Z,11.88
2023-05-02T11:16:00.486Z,10.50
2023-05-02T11:18:28.659Z,10.23
2023-05-02T11:21:28.886Z,10.20
2023-05-02T11:24:30.906Z,10.18
2023-05-02T11:27:33.526Z,10.65
2023-05-02T11:30:04.866Z,11.38
2023-05-02T11:33:06.437Z,10.00
2023-05-02T11:35:37.126Z,10.23
2023-05-02T11:38:11.705Z,8.75
2023-05-02T11:40:40.127Z,8.85
2023-05-02T11:43:16.123Z,8.55
2023-05-02T11:45:44.930Z,8.02
2023-05-02T11:48:14.843Z,7.45
2023-05-02T11:50:48.578Z,7.75
2023-05-02T11:53:22.488Z,7.78
2023-05-02T11:55:52.026Z,8.32
2023-05-02T11:58:25.305Z,7.07
2023-05-02T12:00:54.304Z,7.50
2023-05-02T12:03:24.707Z,7.20
2023-05-02T12:05:52.937Z,7.60
2023-05-02T12:08:27.577Z,7.50
2023-05-02T12:10:57.139Z,6.38
2023-05-02T12:13:27.284Z,5.28
2023-05-02T12:15:56.257Z,5.78
2023-05-02T12:18:27.089Z,6.10
2023-05-02T12:20:57.017Z,3.83
2023-05-02T12:23:28.481Z,3.70
2023-05-02T12:25:57.796Z,4.28
2023-05-02T12:28:29.985Z,4.10
2023-05-02T12:30:58.429Z,4.97
2023-05-02T12:33:26.574Z,4.53
2023-05-02T12:35:54.974Z,5.20
2023-05-02T12:38:25.797Z,4.85
2023-05-02T12:40:57.778Z,5.00
2023-05-02T12:43:26.493Z,6.07
2023-05-02T12:46:11.294Z,5.47
2023-05-02T12:48:40.113Z,5.57
2023-05-02T12:51:08.758Z,4.78
2023-05-02T12:53:41.330Z,5.07
2023-05-02T12:56:11.048Z,3.42
2023-05-02T12:58:43.927Z,3.75
2023-05-02T13:03:41.014Z,3.33
2023-05-02T13:06:09.434Z,4.18
2023-05-02T13:08:38.208Z,5.13
2023-05-02T13:11:06.508Z,5.10
2023-05-02T13:13:36.352Z,4.25
2023-05-02T13:16:05.160Z,4.63
2023-05-02T13:18:33.531Z,4.32
2023-05-02T13:21:01.796Z,5.88
2023-05-02T13:23:30.059Z,5.20
2023-05-02T13:25:58.176Z,5.85
2023-05-02T13:28:26.111Z,5.90
2023-05-02T13:30:55.877Z,5.70
2023-05-02T13:33:24.256Z,5.40
2023-05-02T13:35:52.823Z,4.15
2023-05-02T13:38:20.820Z,3.83
2023-05-02T13:40:49.023Z,4.18
2023-05-02T13:43:17.075Z,4.25
2023-05-02T13:45:45.209Z,3.80
2023-05-02T13:48:15.483Z,3.53
2023-05-02T13:50:43.675Z,3.72
2023-05-02T13:53:13.990Z,3.38
2023-05-02T13:55:42.458Z,3.15
2023-05-02T13:58:10.995Z,2.85
2023-05-02T14:00:39.104Z,2.85
2023-05-02T14:03:07.343Z,3.83
2023-05-02T14:05:36.844Z,2.97
2023-05-02T14:08:05.295Z,2.85
2023-05-02T14:10:33.741Z,2.60
2023-05-02T14:13:01.996Z,2.30
2023-05-02T14:15:30.231Z,2.50
2023-05-02T14:17:59.485Z,2.65
2023-05-02T14:20:27.962Z,3.03
2023-05-02T14:22:57.871Z,3.53
2023-05-02T14:25:26.299Z,3.17
2023-05-02T14:27:57.561Z,3.17
2023-05-02T14:30:25.772Z,3.20
2023-05-02T14:32:54.407Z,3.15
2023-05-02T14:35:22.609Z,3.60
2023-05-02T14:37:50.958Z,3.67
2023-05-02T14:40:21.559Z,4.10
2023-05-02T14:42:50.332Z,4.90
2023-05-02T14:45:18.928Z,4.07
2023-05-02T14:47:47.140Z,4.63
2023-05-02T14:50:15.461Z,5.00
2023-05-02T14:52:46.549Z,4.28
2023-05-02T14:55:16.591Z,4.65
2023-05-02T14:57:45.995Z,4.47
2023-05-02T15:00:16.455Z,4.30
2023-05-02T15:02:44.788Z,4.80
2023-05-02T15:05:13.174Z,4.00
2023-05-02T15:07:41.364Z,3.80
2023-05-02T15:10:10.587Z,4.22
2023-05-02T15:12:38.949Z,3.80
2023-05-02T15:15:11.569Z,3.30
2023-05-02T15:20:09.101Z,3.45
2023-05-02T15:22:37.262Z,2.80
2023-05-02T15:25:06.055Z,3.13
2023-05-02T15:27:34.163Z,2.70
2023-05-02T15:30:03.929Z,2.67
2023-05-02T15:32:34.150Z,2.45
2023-05-02T15:35:02.520Z,2.05
2023-05-02T15:37:30.823Z,2.30
2023-05-02T15:40:01.028Z,2.42
2023-05-02T15:42:29.609Z,2.30
2023-05-02T15:44:57.680Z,2.08
2023-05-02T15:47:26.303Z,2.20
2023-05-02T15:49:56.275Z,2.42
2023-05-02T15:52:24.430Z,2.58
2023-05-02T15:54:52.881Z,2.40
2023-05-02T15:57:21.228Z,2.95
2023-05-02T15:59:49.207Z,2.65
2023-05-02T16:02:17.619Z,2.78
2023-05-02T16:04:46.576Z,2.50
2023-05-02T16:07:16.157Z,2.58
2023-05-02T16:09:44.014Z,2.65
2023-05-02T16:12:11.963Z,2.40
2023-05-02T16:14:39.884Z,2.55
2023-05-02T16:17:08.074Z,2.60
2023-05-02T16:19:36.373Z,2.60
2023-05-02T16:22:04.594Z,2.90
2023-05-02T16:24:33.919Z,2.58
2023-05-02T16:27:02.035Z,3.33
2023-05-02T16:29:30.595Z,2.97
2023-05-02T16:31:59.822Z,2.90
2023-05-02T16:34:28.696Z,3.13
2023-05-02T16:36:57.125Z,3.35
2023-05-02T16:39:25.395Z,3.40
2023-05-02T16:41:54.680Z,3.65
2023-05-02T16:44:22.819Z,3.92
2023-05-02T16:46:51.329Z,3.70
2023-05-02T16:49:19.286Z,3.90
2023-05-02T16:51:51.290Z,3.88
2023-05-02T16:54:19.270Z,4.10
2023-05-02T16:56:47.633Z,4.10
2023-05-02T16:59:17.747Z,4.57
2023-05-02T17:01:46.142Z,4.15
2023-05-02T17:04:14.300Z,4.68
2023-05-02T17:06:42.324Z,4.40
2023-05-02T17:09:10.692Z,4.28
2023-05-02T17:11:39.370Z,3.88
2023-05-02T17:14:08.009Z,3.90
2023-05-02T17:16:38.581Z,3.83
2023-05-02T17:19:06.524Z,3.85
2023-05-02T17:21:35.802Z,3.80
2023-05-02T17:24:04.028Z,4.53
2023-05-02T17:26:32.182Z,4.70
2023-05-02T17:29:00.808Z,3.90
2023-05-02T17:31:31.089Z,4.85
2023-05-02T17:34:00.775Z,4.50
2023-05-02T17:36:29.183Z,4.10
2023-05-02T17:38:57.613Z,4.13
2023-05-02T17:41:26.287Z,3.85
2023-05-02T17:43:54.886Z,3.70
2023-05-02T17:46:23.112Z,4.15
2023-05-02T17:48:52.050Z,4.60
2023-05-02T17:51:21.275Z,4.20
2023-05-02T17:53:51.456Z,3.95
2023-05-02T17:56:20.166Z,4.07
2023-05-02T17:58:50.247Z,4.63
2023-05-02T18:01:18.269Z,4.10
2023-05-02T18:03:48.074Z,4.00
2023-05-02T18:06:17.602Z,3.97
2023-05-02T18:08:47.464Z,3.78
2023-05-02T18:11:17.225Z,3.97
2023-05-02T18:13:45.754Z,4.20
2023-05-02T18:16:14.658Z,4.22
2023-05-02T18:18:44.023Z,3.40
2023-05-02T18:21:12.494Z,3.80
2023-05-02T18:23:41.209Z,2.90
2023-05-02T18:26:15.317Z,3.53
2023-05-02T18:28:45.129Z,3.55
2023-05-02T18:31:19.130Z,3.47
2023-05-02T18:33:47.920Z,3.42
2023-05-02T18:36:19.475Z,3.35
2023-05-02T18:38:48.174Z,3.83
2023-05-02T18:41:19.962Z,3.33
2023-05-02T18:43:48.288Z,3.40
2023-05-02T18:46:16.525Z,3.97
2023-05-02T18:48:44.675Z,3.65
2023-05-02T18:51:12.603Z,3.70
2023-05-02T18:53:40.897Z,4.22
2023-05-02T18:56:14.970Z,3.40
2023-05-02T18:58:44.477Z,4.35
2023-05-02T19:01:15.837Z,3.67
2023-05-02T19:03:44.465Z,3.55
2023-05-02T19:06:13.183Z,3.67
2023-05-02T19:08:41.808Z,3.90
2023-05-02T19:11:09.970Z,4.18
2023-05-02T19:13:39.045Z,4.20
2023-05-02T19:16:11.978Z,4.70
2023-05-02T19:18:40.519Z,4.28
2023-05-02T19:21:13.786Z,4.25
2023-05-02T19:23:42.874Z,4.60
2023-05-02T19:26:14.432Z,5.05
2023-05-02T19:28:42.765Z,4.47
2023-05-02T19:31:13.447Z,4.60
2023-05-02T19:33:43.677Z,4.75
2023-05-02T19:36:12.217Z,5.05
2023-05-02T19:38:41.632Z,5.47
2023-05-02T19:41:09.917Z,4.50
2023-05-02T19:43:38.086Z,5.32
2023-05-02T19:46:06.109Z,4.80
2023-05-02T19:48:35.669Z,5.20
2023-05-02T19:51:04.837Z,4.55
2023-05-02T19:53:32.926Z,4.78
2023-05-02T19:56:01.879Z,4.85
2023-05-02T19:58:31.504Z,5.10
2023-05-02T20:00:59.775Z,4.80
2023-05-02T20:03:28.246Z,5.70
2023-05-02T20:05:58.729Z,5.03
2023-05-02T20:08:28.278Z,5.60
2023-05-02T20:10:56.950Z,5.40
2023-05-02T20:13:25.260Z,4.70
2023-05-02T20:15:54.004Z,4.82
2023-05-02T20:18:22.454Z,5.50
2023-05-02T20:20:50.791Z,5.80
2023-05-02T20:23:20.690Z,5.25
2023-05-02T20:25:48.806Z,4.97
2023-05-02T20:28:17.149Z,6.03
2023-05-02T20:30:45.200Z,5.03
2023-05-02T20:33:16.681Z,5.18
2023-05-02T20:35:45.975Z,5.32
2023-05-02T20:38:17.749Z,5.45
2023-05-02T20:40:47.399Z,7.00
2023-05-02T20:43:18.766Z,5.13
2023-05-02T20:45:47.279Z,5.22
2023-05-02T20:48:18.230Z,5.28
2023-05-02T20:50:54.404Z,5.50
2023-05-02T20:53:23.998Z,5.60
2023-05-02T20:55:53.642Z,5.35
2023-05-02T20:58:22.109Z,5.10
2023-05-02T21:00:52.746Z,5.18
2023-05-02T21:03:21.650Z,5.63
2023-05-02T21:05:53.469Z,5.35
2023-05-02T21:08:25.232Z,5.05
2023-05-02T21:10:54.749Z,4.85
2023-05-02T21:13:23.434Z,5.60
2023-05-02T21:15:51.481Z,5.00
2023-05-02T21:18:19.746Z,5.30
2023-05-02T21:20:51.282Z,5.18
2023-05-02T21:23:19.395Z,5.25
2023-05-02T21:25:47.291Z,4.70
2023-05-02T21:28:17.072Z,5.30
2023-05-02T21:30:45.455Z,5.32
2023-05-02T21:33:15.671Z,4.82
2023-05-02T21:35:44.176Z,5.10
2023-05-02T21:38:12.649Z,5.15
2023-05-02T21:40:40.855Z,5.10
2023-05-02T21:43:09.193Z,4.78
2023-05-02T21:45:44.682Z,5.38
2023-05-02T21:48:13.749Z,5.70
2023-05-02T21:50:42.889Z,4.90
2023-05-02T21:53:11.898Z,4.63
2023-05-02T21:55:41.000Z,4.25
2023-05-02T21:58:11.153Z,4.80
2023-05-02T22:00:42.049Z,4.20
2023-05-02T22:03:12.037Z,4.93
2023-05-02T22:05:41.627Z,4.60
2023-05-02T22:08:11.981Z,5.43
2023-05-02T22:10:43.286Z,4.60
2023-05-02T22:13:13.577Z,5.32
2023-05-02T22:15:45.496Z,4.80
2023-05-02T22:18:14.242Z,4.60
2023-05-02T22:20:43.111Z,4.50
2023-05-02T22:23:12.533Z,4.93
2023-05-02T22:25:42.251Z,5.03
2023-05-02T22:28:12.174Z,5.05
2023-05-02T22:30:42.873Z,4.78
2023-05-02T22:33:14.108Z,5.15
2023-05-02T22:35:42.748Z,5.18
2023-05-02T22:38:15.223Z,4.80
2023-05-02T22:40:45.212Z,5.63
2023-05-02T22:43:13.451Z,4.90
2023-05-02T22:45:41.949Z,5.40
2023-05-02T22:48:10.184Z,5.30
2023-05-02T22:50:40.284Z,5.20
2023-05-02T22:53:09.384Z,5.53
2023-05-02T22:55:38.942Z,5.38
2023-05-02T22:58:07.403Z,6.05
2023-05-02T23:00:35.992Z,5.35
2023-05-02T23:03:04.632Z,5.90
2023-05-02T23:05:32.779Z,6.10
2023-05-02T23:08:02.628Z,6.97
2023-05-02T23:10:31.115Z,6.53
2023-05-02T23:12:59.848Z,6.07
2023-05-02T23:15:28.176Z,6.40
2023-05-02T23:17:56.313Z,7.40
2023-05-02T23:20:24.562Z,6.88
2023-05-02T23:22:52.560Z,7.43
2023-05-02T23:25:24.344Z,7.20
2023-05-02T23:27:53.243Z,6.68
2023-05-02T23:30:21.447Z,7.22
2023-05-02T23:32:49.637Z,6.45
2023-05-02T23:35:18.138Z,7.50
2023-05-02T23:37:46.891Z,8.43
2023-05-02T23:40:15.277Z,7.25
2023-05-02T23:42:44.944Z,6.40
2023-05-02T23:45:14.010Z,5.72
2023-05-02T23:47:43.087Z,7.18
2023-05-02T23:50:11.827Z,7.07
2023-05-02T23:52:39.688Z,6.88
2023-05-02T23:55:10.892Z,6.20
2023-05-02T23:57:39.402Z,6.95
